aviador You're here:

KHEY Decoded Metar

in _UNIDENTIFIED
Report Time2017-07-26 03:58:00
UTC Time2017-07-26 04:37:06
Flight Rules vfr VFR
Wind240° at 03 kt
W.Decomp.*RWY 17: 0.9 kt HW 2.9 kt RCW
W.Rank240° ranks 33
Current wind is below 240° avg. (5.2)
Visibility9999 m
Phenomena:N/A
Clouds:Few 033 Hf
CeilingNone
Temp23°C (ISA +9)
Dew Point23°C (100% RH)
QNH1020 hPa
Density Alt1,457 ft
Elevation318 ft
Report Wrong Elevation
Raw Report
KHEY 260358Z AUTO 24003KT 10SM FEW033 23/23 A3011 RMK AO2 SLPNO
T02330228=

Extra information for KHEY:More info

Metar Taf Metar & Taf Last 4 Metars F.Rules Stats Wind Profile Meteogram Temp Stats Metar ALERT Operation Metar Decoded Social comments